Weather at Dawsons Airport

Public forecast

Using degrees Celsius for public forecast. Weather courtesy of forecast.io.

Closest aviation weather report (METAR) to Dawsons Airport

Report is more than 2 hours old.

Closest report is Robert Gabriel Mugabe International Airport, 56.8 nm (105.2 km) SSE. Retrieved 2021/01/23 08:00 UTC (5 hours ago):

FVRG 230800Z 24009KT 210V280 9999 SCT010 BKN080 21/16 Q1016 NOSIG

Closest aviation forecast (TAF) to Dawsons Airport

Forecast is more than 12 hours old.

Closest forecast is Robert Gabriel Mugabe International Airport, 56.8 nm (105.2 km) SSE. Retrieved 2021/01/15 18:00 UTC (8 days ago):

TAF FVRG 151600Z 1518/1624 35007KT 9999 BKN025 PROB30 TEMPO 1519/1523 8000 -TSRA FEW030CB BKN080 BECMG 1602/1604 SCT010 BECMG 1606/1608 SCT020 PROB30 TEMPO 1612/1618 8000 -TSRA FEW020CB BKN080 BECMG 1620/1622 -RA BKN080